Time;durP1;ratioP1;P1;durP2;ratioP2;P2;SDS_P1;SDS_P2;PMS_P1;PMS_P2;Temp;Humidity;BMP_temperature;BMP_pressure;BME280_temperature;BME280_humidity;BME280_pressure;Samples;Min_cycle;Max_cycle;Signal;HPM_P1;HPM_P2
2022/03/31 07:06:36;;;;;;;13.35;8.77;;;;;;;;;;10667455;27;20030;-82
2022/03/31 07:11:38;;;;;;;15.32;11.75;;;;;;;;;;10634199;27;20402;-82
2022/03/31 07:16:39;;;;;;;10.18;8.07;;;;;;;;;;10626859;27;20394;-81
2022/03/31 07:21:49;;;;;;;10.27;8.05;;;;;;;;;;10644409;27;20061;-82
2022/03/31 07:26:52;;;;;;;11.95;9.23;;;;;;;;;;10638195;27;20039;-85
2022/03/31 07:31:53;;;;;;;10.63;7.63;;;;;;;;;;10642004;27;20031;-82
2022/03/31 07:36:54;;;;;;;10.18;8.02;;;;;;;;;;10659278;27;20034;-82
2022/03/31 07:41:55;;;;;;;12.48;10.23;;;;;;;;;;10665985;27;20114;-82
2022/03/31 07:46:56;;;;;;;12.10;9.27;;;;;;;;;;10657662;27;20031;-82
2022/03/31 07:52:01;;;;;;;12.43;9.15;;;;;;;;;;10645636;27;20028;-84
2022/03/31 07:57:02;;;;;;;15.20;12.15;;;;;;;;;;10627809;27;20050;-79
2022/03/31 08:02:25;;;;;;;18.30;13.25;;;;;;;;;;10643493;27;20110;-85
2022/03/31 08:07:26;;;;;;;11.00;8.65;;;;;;;;;;10641403;27;20047;-82
2022/03/31 08:12:27;;;;;;;12.30;8.52;;;;;;;;;;10638465;27;20447;-81
2022/03/31 08:17:29;;;;;;;9.00;7.55;;;;;;;;;;10639011;27;20038;-81
2022/03/31 08:22:29;;;;;;;11.50;8.43;;;;;;;;;;10637188;27;20110;-86
2022/03/31 08:27:32;;;;;;;9.80;6.85;;;;;;;;;;10635602;27;20740;-85
2022/03/31 08:32:35;;;;;;;9.13;6.95;;;;;;;;;;10642065;27;20603;-84
2022/03/31 08:37:36;;;;;;;13.25;8.65;;;;;;;;;;10640402;27;20050;-82
2022/03/31 08:42:41;;;;;;;8.20;6.93;;;;;;;;;;10641109;27;20035;-84
2022/03/31 08:47:43;;;;;;;6.97;5.22;;;;;;;;;;10640356;27;20053;-81
2022/03/31 08:52:44;;;;;;;8.55;6.78;;;;;;;;;;10640077;27;20059;-82
2022/03/31 08:57:47;;;;;;;7.85;5.05;;;;;;;;;;10641555;27;20102;-84
2022/03/31 09:03:02;;;;;;;7.88;5.65;;;;;;;;;;10638121;27;20094;-83
2022/03/31 09:08:05;;;;;;;7.05;4.50;;;;;;;;;;10637770;27;20027;-84
2022/03/31 09:13:20;;;;;;;7.07;4.88;;;;;;;;;;10645174;27;20043;-84
2022/03/31 09:18:22;;;;;;;6.95;5.60;;;;;;;;;;10651322;27;20042;-86
2022/03/31 09:23:32;;;;;;;6.80;4.70;;;;;;;;;;10638067;27;20027;-86
2022/03/31 09:28:36;;;;;;;5.60;4.37;;;;;;;;;;10649884;27;20091;-83
2022/03/31 09:33:38;;;;;;;9.35;5.85;;;;;;;;;;10652451;27;20314;-84
2022/03/31 09:38:40;;;;;;;12.82;10.15;;;;;;;;;;10646532;27;20023;-83
2022/03/31 09:43:42;;;;;;;5.55;4.05;;;;;;;;;;10638921;27;20035;-85
2022/03/31 09:48:48;;;;;;;8.02;5.57;;;;;;;;;;10644387;27;20078;-86
2022/03/31 09:53:51;;;;;;;6.65;5.50;;;;;;;;;;10657858;27;20058;-86
2022/03/31 09:58:56;;;;;;;7.65;5.53;;;;;;;;;;10666304;27;20030;-85
2022/03/31 10:04:34;;;;;;;9.13;7.18;;;;;;;;;;10661350;28;20035;-81
2022/03/31 10:09:36;;;;;;;10.35;7.95;;;;;;;;;;10659409;28;20022;-84
2022/03/31 10:14:43;;;;;;;8.93;7.35;;;;;;;;;;10658214;28;20027;-84
2022/03/31 10:19:45;;;;;;;20.33;14.63;;;;;;;;;;10659601;28;20027;-84
2022/03/31 10:24:53;;;;;;;10.98;8.30;;;;;;;;;;10650702;28;20054;-84
2022/03/31 10:29:55;;;;;;;11.07;9.50;;;;;;;;;;10640307;28;20023;-83
2022/03/31 10:34:56;;;;;;;11.60;9.23;;;;;;;;;;10640852;28;20019;-81
2022/03/31 10:39:57;;;;;;;12.32;9.32;;;;;;;;;;10641350;28;20028;-81
2022/03/31 10:45:06;;;;;;;18.67;13.40;;;;;;;;;;10636751;28;20028;-79
2022/03/31 10:50:09;;;;;;;10.68;9.07;;;;;;;;;;10642031;27;20095;-81
2022/03/31 10:55:14;;;;;;;18.00;14.32;;;;;;;;;;10642461;27;20027;-81
2022/03/31 11:00:15;;;;;;;12.57;9.52;;;;;;;;;;10648848;27;20046;-79
2022/03/31 11:05:16;;;;;;;8.45;6.72;;;;;;;;;;10647415;27;20015;-81
2022/03/31 11:10:17;;;;;;;10.02;7.30;;;;;;;;;;10651678;27;20046;-82
2022/03/31 11:15:18;;;;;;;11.77;8.23;;;;;;;;;;10649530;27;20439;-80
2022/03/31 11:20:22;;;;;;;12.98;10.63;;;;;;;;;;10649860;27;20034;-81
2022/03/31 11:25:24;;;;;;;10.45;8.30;;;;;;;;;;10642242;27;20479;-80
2022/03/31 11:30:26;;;;;;;18.75;13.70;;;;;;;;;;10659964;27;20039;-81
2022/03/31 11:35:28;;;;;;;11.00;8.90;;;;;;;;;;10643653;27;20577;-82
2022/03/31 11:40:34;;;;;;;12.93;8.98;;;;;;;;;;10639757;27;20471;-81
2022/03/31 11:45:36;;;;;;;14.55;11.30;;;;;;;;;;10642372;27;20034;-82
2022/03/31 11:50:38;;;;;;;16.58;14.15;;;;;;;;;;10640871;27;20547;-81
2022/03/31 11:55:39;;;;;;;12.50;11.05;;;;;;;;;;10641550;27;20015;-81
2022/03/31 12:00:48;;;;;;;19.55;17.38;;;;;;;;;;10640464;27;20094;-81
2022/03/31 12:05:59;;;;;;;16.10;13.68;;;;;;;;;;10639781;27;20117;-82
2022/03/31 12:11:00;;;;;;;14.95;10.77;;;;;;;;;;10640629;27;20119;-81
2022/03/31 12:16:10;;;;;;;11.13;8.70;;;;;;;;;;10639979;27;20039;-83
2022/03/31 12:21:11;;;;;;;10.47;8.43;;;;;;;;;;10637638;27;20034;-81
2022/03/31 12:26:18;;;;;;;13.82;11.13;;;;;;;;;;10665187;27;20030;-81
2022/03/31 12:31:20;;;;;;;10.48;8.95;;;;;;;;;;10640828;27;20011;-82
2022/03/31 12:36:32;;;;;;;16.45;14.38;;;;;;;;;;10636072;27;20015;-81
2022/03/31 12:41:35;;;;;;;10.60;8.63;;;;;;;;;;10635562;27;20057;-81
2022/03/31 12:46:40;;;;;;;10.77;8.95;;;;;;;;;;10634997;27;20080;-82
2022/03/31 12:51:55;;;;;;;14.13;11.32;;;;;;;;;;10634192;27;20027;-81
2022/03/31 12:56:57;;;;;;;15.80;12.73;;;;;;;;;;10632015;27;20027;-80
2022/03/31 13:02:00;;;;;;;12.15;10.68;;;;;;;;;;10633136;27;20023;-81
2022/03/31 13:07:17;;;;;;;12.55;10.90;;;;;;;;;;10636648;27;20333;-82
2022/03/31 13:12:18;;;;;;;13.63;11.68;;;;;;;;;;10636493;27;20027;-82
2022/03/31 13:17:20;;;;;;;9.57;7.93;;;;;;;;;;10652085;27;20011;-83
2022/03/31 13:22:24;;;;;;;13.35;11.50;;;;;;;;;;10641790;27;20031;-81
2022/03/31 13:27:31;;;;;;;11.38;9.73;;;;;;;;;;10664818;27;20039;-82
2022/03/31 13:32:32;;;;;;;15.20;12.48;;;;;;;;;;10649697;27;20031;-81
2022/03/31 13:37:34;;;;;;;23.40;17.77;;;;;;;;;;10639059;27;20024;-81
2022/03/31 13:42:38;;;;;;;16.48;12.68;;;;;;;;;;10638958;27;20038;-80
2022/03/31 13:47:43;;;;;;;15.63;11.07;;;;;;;;;;10637782;27;20026;-81
2022/03/31 13:53:43;;;;;;;13.45;10.95;;;;;;;;;;10638108;27;20035;-80
2022/03/31 14:03:28;;;;;;;12.32;9.45;;;;;;;;;;10640824;28;20039;-81
2022/03/31 14:08:29;;;;;;;23.20;17.70;;;;;;;;;;10638463;28;20026;-81
2022/03/31 14:13:30;;;;;;;18.40;14.40;;;;;;;;;;10638851;28;20047;-83
2022/03/31 14:18:32;;;;;;;17.13;12.88;;;;;;;;;;10639355;28;20075;-82
2022/03/31 14:23:34;;;;;;;19.75;14.68;;;;;;;;;;10641505;27;20505;-82
2022/03/31 14:28:37;;;;;;;15.32;11.90;;;;;;;;;;10653291;27;20113;-80
2022/03/31 14:33:41;;;;;;;18.00;13.50;;;;;;;;;;10644925;27;20488;-81
2022/03/31 14:38:43;;;;;;;21.35;15.55;;;;;;;;;;10646808;27;20023;-81
2022/03/31 14:43:46;;;;;;;18.05;13.23;;;;;;;;;;10644383;27;20114;-81
2022/03/31 14:48:51;;;;;;;13.10;10.55;;;;;;;;;;10644595;27;20047;-81
2022/03/31 14:53:53;;;;;;;27.60;20.55;;;;;;;;;;10644105;27;20072;-83
2022/03/31 14:59:07;;;;;;;24.90;19.27;;;;;;;;;;10641143;27;20118;-82
2022/03/31 15:04:11;;;;;;;15.75;12.63;;;;;;;;;;10643626;27;20093;-83
2022/03/31 15:14:30;;;;;;;16.15;11.95;;;;;;;;;;10644470;27;20080;-83
2022/03/31 15:14:33;;;;;;;;;;;;;;;;;;10651530;27;20035;-83
2022/03/31 15:19:39;;;;;;;;;;;;;;;;;;10673750;27;19903;-83
2022/03/31 15:24:40;;;;;;;16.60;12.45;;;;;;;;;;10650653;27;19906;-83
2022/03/31 15:29:42;;;;;;;21.85;14.80;;;;;;;;;;10645225;27;20031;-83
2022/03/31 15:34:44;;;;;;;21.45;16.40;;;;;;;;;;10643483;27;20030;-83
2022/03/31 15:39:49;;;;;;;13.55;10.20;;;;;;;;;;10639933;27;20035;-84
2022/03/31 15:44:50;;;;;;;15.45;11.85;;;;;;;;;;10646989;27;20033;-84
2022/03/31 15:49:56;;;;;;;22.17;16.08;;;;;;;;;;10655508;27;20026;-82
2022/03/31 15:55:03;;;;;;;19.90;13.23;;;;;;;;;;10656894;27;20055;-82
2022/03/31 16:00:05;;;;;;;15.43;13.27;;;;;;;;;;10642916;27;20023;-82
2022/03/31 16:05:13;;;;;;;14.75;11.50;;;;;;;;;;10639970;27;20031;-82
2022/03/31 16:10:18;;;;;;;15.02;11.70;;;;;;;;;;10638768;27;20040;-82
2022/03/31 16:15:19;;;;;;;11.43;9.23;;;;;;;;;;10637192;27;20554;-82
2022/03/31 16:20:21;;;;;;;9.38;7.65;;;;;;;;;;10651859;27;20043;-79
2022/03/31 16:25:22;;;;;;;12.60;9.82;;;;;;;;;;10652303;27;20045;-81
2022/03/31 16:42:09;;;;;;;11.48;9.68;;;;;;;;;;10670545;27;20019;-84
2022/03/31 16:53:14;;;;;;;11.05;9.32;;;;;;;;;;10646728;27;20031;-84
2022/03/31 17:03:40;;;;;;;11.25;10.05;;;;;;;;;;10664694;27;20043;-84
2022/03/31 17:20:20;;;;;;;12.57;11.25;;;;;;;;;;10642547;27;20043;-84
2022/03/31 17:26:15;;;;;;;15.43;13.77;;;;;;;;;;10647278;27;20031;-84
2022/03/31 17:54:44;;;;;;;15.45;11.27;;;;;;;;;;10463916;28;20052;-85
2022/03/31 18:00:10;;;;;;;11.13;9.27;;;;;;;;;;10449204;28;20037;-85
2022/03/31 18:17:13;;;;;;;13.00;8.98;;;;;;;;;;10422841;28;20096;-85
2022/03/31 18:28:32;;;;;;;9.70;7.82;;;;;;;;;;10425009;28;20505;-86
2022/03/31 18:39:18;;;;;;;7.70;6.63;;;;;;;;;;10547990;28;20102;-86
2022/03/31 18:45:02;;;;;;;9.80;8.07;;;;;;;;;;10572118;27;20393;-85
2022/03/31 18:50:05;;;;;;;11.00;8.65;;;;;;;;;;10631811;28;20033;-85
2022/03/31 18:55:25;;;;;;;8.20;6.22;;;;;;;;;;10629700;28;20027;-86
2022/03/31 19:00:53;;;;;;;7.10;5.97;;;;;;;;;;10626432;28;20491;-86
2022/03/31 19:17:29;;;;;;;10.10;8.77;;;;;;;;;;10653847;27;20031;-86
2022/03/31 19:22:55;;;;;;;8.57;7.68;;;;;;;;;;10609106;27;20402;-86
2022/03/31 19:28:01;;;;;;;9.13;7.75;;;;;;;;;;10641970;27;20039;-86
